Terminal Aerodrome Forecast
Issued by NWS Cleveland, OH

Home | Current Version | Previous Version | Graphics & Text | Print | Product List | Glossary On
Versions: 1 2 3 4 5 6 7 8 9 10 11 12 13 14 15 16 17
000
FTUS41 KCLE 211122
TAFYNG
TAF
KYNG 211122Z 2112/2212 19008KT P6SM SKC WS020/22045KT
     FM211500 21015G25KT P6SM SCT100 BKN250
     FM212200 21012KT P6SM SCT035 BKN050
      TEMPO 2202/2204 4SM -SHRA SCT015 OVC025
     FM220400 29010KT 4SM -SHRASN SCT009 OVC015=

USA.gov is the U.S. government's official web portal to all federal, state and local government web resources and services.